createdAt,value
2023-04-29T00:01:35.430Z,27.05
2023-04-29T00:04:02.749Z,27.02
2023-04-29T00:06:30.876Z,26.58
2023-04-29T00:08:58.645Z,28.13
2023-04-29T00:11:25.521Z,25.70
2023-04-29T00:13:52.668Z,31.15
2023-04-29T00:16:19.635Z,25.73
2023-04-29T00:18:46.681Z,26.33
2023-04-29T00:21:13.564Z,26.30
2023-04-29T00:23:41.081Z,26.63
2023-04-29T00:26:08.014Z,24.45
2023-04-29T00:28:35.028Z,25.30
2023-04-29T00:31:02.264Z,24.50
2023-04-29T00:33:29.298Z,24.52
2023-04-29T00:35:56.601Z,24.20
2023-04-29T00:38:23.779Z,25.52
2023-04-29T00:40:51.162Z,23.40
2023-04-29T00:43:18.104Z,23.42
2023-04-29T00:45:45.966Z,22.35
2023-04-29T00:48:15.418Z,20.45
2023-04-29T00:50:43.628Z,22.25
2023-04-29T00:53:14.798Z,20.98
2023-04-29T00:55:44.082Z,20.13
2023-04-29T00:58:11.845Z,20.08
2023-04-29T01:00:39.106Z,20.10
2023-04-29T01:03:06.201Z,18.75
2023-04-29T01:05:33.990Z,18.92
2023-04-29T01:08:19.125Z,18.05
2023-04-29T01:10:57.306Z,17.83
2023-04-29T01:13:35.326Z,17.38
2023-04-29T01:16:04.968Z,20.77
2023-04-29T01:18:43.666Z,17.55
2023-04-29T01:21:10.714Z,18.10
2023-04-29T01:23:37.625Z,18.90
2023-04-29T01:26:05.999Z,18.63
2023-04-29T01:28:52.115Z,19.85
2023-04-29T01:31:28.343Z,19.90
2023-04-29T01:34:02.295Z,20.27
2023-04-29T01:36:35.631Z,19.73
2023-04-29T01:39:27.527Z,22.08
2023-04-29T01:42:04.748Z,18.95
2023-04-29T01:44:34.122Z,20.38
2023-04-29T01:47:01.758Z,21.83
2023-04-29T01:49:28.916Z,21.23
2023-04-29T01:51:56.403Z,20.02
2023-04-29T01:54:23.540Z,19.10
2023-04-29T01:56:52.046Z,20.50
2023-04-29T01:59:19.008Z,20.73
2023-04-29T02:01:45.915Z,20.98
2023-04-29T02:04:13.587Z,21.77
2023-04-29T02:06:40.619Z,20.83
2023-04-29T02:09:07.509Z,22.52
2023-04-29T02:11:34.475Z,22.35
2023-04-29T02:14:01.637Z,22.80
2023-04-29T02:16:28.553Z,22.98
2023-04-29T02:18:55.658Z,21.83
2023-04-29T02:21:22.769Z,22.88
2023-04-29T02:23:50.422Z,22.08
2023-04-29T02:26:17.368Z,21.20
2023-04-29T02:28:44.374Z,22.25
2023-04-29T02:31:11.332Z,22.63
2023-04-29T02:33:38.690Z,22.58
2023-04-29T02:36:05.770Z,21.98
2023-04-29T02:38:32.839Z,24.33
2023-04-29T02:40:59.809Z,23.20
2023-04-29T02:43:26.803Z,24.88
2023-04-29T02:45:53.778Z,23.42
2023-04-29T02:48:21.101Z,24.35
2023-04-29T02:50:48.085Z,22.17
2023-04-29T02:53:15.085Z,20.92
2023-04-29T02:55:42.091Z,22.75
2023-04-29T02:58:09.061Z,23.90
2023-04-29T03:00:35.996Z,25.55
2023-04-29T03:03:03.539Z,22.77
2023-04-29T03:05:30.623Z,22.50
2023-04-29T03:07:57.599Z,22.08
2023-04-29T03:10:24.551Z,23.05
2023-04-29T03:12:51.610Z,23.05
2023-04-29T03:15:20.278Z,23.65
2023-04-29T03:17:47.364Z,22.52
2023-04-29T03:20:14.407Z,21.92
2023-04-29T03:22:41.329Z,21.25
2023-04-29T03:25:10.470Z,23.17
2023-04-29T03:27:37.680Z,23.98
2023-04-29T03:30:05.953Z,23.63
2023-04-29T03:32:32.967Z,20.65
2023-04-29T03:34:59.953Z,22.83
2023-04-29T03:37:26.992Z,23.38
2023-04-29T03:39:54.446Z,21.02
2023-04-29T03:42:21.652Z,20.15
2023-04-29T03:44:48.646Z,18.35
2023-04-29T03:47:15.561Z,18.40
2023-04-29T03:49:42.849Z,18.30
2023-04-29T03:52:09.894Z,16.10
2023-04-29T03:54:37.018Z,17.90
2023-04-29T03:57:04.628Z,15.18
2023-04-29T04:03:18.500Z,15.32
2023-04-29T04:05:45.619Z,15.68
2023-04-29T04:08:12.806Z,15.65
2023-04-29T04:10:39.843Z,14.85
2023-04-29T04:13:06.990Z,15.30
2023-04-29T04:15:34.025Z,15.48
2023-04-29T04:18:01.138Z,14.35
2023-04-29T04:20:28.315Z,14.82
2023-04-29T04:22:57.748Z,14.20
2023-04-29T04:25:24.948Z,12.80
2023-04-29T04:27:53.661Z,18.23
2023-04-29T04:30:21.770Z,15.57
2023-04-29T04:32:48.742Z,16.73
2023-04-29T04:35:15.962Z,14.75
2023-04-29T04:37:42.974Z,13.75
2023-04-29T04:40:13.903Z,15.63
2023-04-29T04:42:53.079Z,13.30
2023-04-29T04:45:22.246Z,15.73
2023-04-29T04:47:49.326Z,15.40
2023-04-29T04:50:20.177Z,13.88
2023-04-29T04:52:59.149Z,14.27
2023-04-29T04:55:27.166Z,14.70
2023-04-29T04:57:54.416Z,16.05
2023-04-29T05:00:28.018Z,15.05
2023-04-29T05:03:01.471Z,16.98
2023-04-29T05:05:31.249Z,14.38
2023-04-29T05:08:00.775Z,14.48
2023-04-29T05:10:27.684Z,12.93
2023-04-29T05:12:57.930Z,14.45
2023-04-29T05:15:36.393Z,14.35
2023-04-29T05:18:03.939Z,13.23
2023-04-29T05:20:30.991Z,13.68
2023-04-29T05:22:57.949Z,11.70
2023-04-29T05:25:25.124Z,13.25
2023-04-29T05:27:53.570Z,12.05
2023-04-29T05:30:21.175Z,13.10
2023-04-29T05:32:49.058Z,12.48
2023-04-29T05:35:16.384Z,11.35
2023-04-29T05:37:45.576Z,12.77
2023-04-29T05:40:12.712Z,12.35
2023-04-29T05:42:39.673Z,11.65
2023-04-29T05:45:07.250Z,12.82
2023-04-29T05:47:43.841Z,11.80
2023-04-29T05:50:11.724Z,10.82
2023-04-29T05:52:45.485Z,14.35
2023-04-29T05:55:15.600Z,12.35
2023-04-29T05:57:42.719Z,11.35
2023-04-29T06:00:10.209Z,10.63
2023-04-29T06:02:50.691Z,12.05
2023-04-29T06:05:22.779Z,11.07
2023-04-29T06:07:50.693Z,12.82
2023-04-29T06:10:20.760Z,9.98
2023-04-29T06:12:50.863Z,10.82
2023-04-29T06:15:18.055Z,10.65
2023-04-29T06:17:45.178Z,11.68
2023-04-29T06:20:13.813Z,11.88
2023-04-29T06:22:40.945Z,9.57
2023-04-29T06:25:08.282Z,10.75
2023-04-29T06:27:35.471Z,12.00
2023-04-29T06:30:02.428Z,10.38
2023-04-29T06:32:30.402Z,11.85
2023-04-29T06:35:01.325Z,9.48
2023-04-29T06:37:28.954Z,11.07
2023-04-29T06:39:56.239Z,11.98
2023-04-29T06:42:33.813Z,9.43
2023-04-29T06:45:00.888Z,9.05
2023-04-29T06:47:28.298Z,9.05
2023-04-29T06:49:57.941Z,7.78
2023-04-29T06:52:24.969Z,9.63
2023-04-29T06:54:52.055Z,7.65
2023-04-29T06:57:21.863Z,8.25
2023-04-29T06:59:48.906Z,8.82
2023-04-29T07:02:16.395Z,7.13
2023-04-29T07:04:45.898Z,7.60
2023-04-29T07:07:34.949Z,7.68
2023-04-29T07:10:02.022Z,8.05
2023-04-29T07:12:39.340Z,7.88
2023-04-29T07:15:12.633Z,7.28
2023-04-29T07:17:41.040Z,7.60
2023-04-29T07:20:08.719Z,7.00
2023-04-29T07:22:35.699Z,8.07
2023-04-29T07:25:03.221Z,7.53
2023-04-29T07:27:30.266Z,7.53
2023-04-29T07:30:01.348Z,7.80
2023-04-29T07:32:28.727Z,5.60
2023-04-29T07:34:56.026Z,6.13
2023-04-29T07:37:26.440Z,6.53
2023-04-29T07:39:56.248Z,4.75
2023-04-29T07:42:28.771Z,6.30
2023-04-29T07:44:56.037Z,7.47
2023-04-29T07:47:32.929Z,5.78
2023-04-29T07:50:04.109Z,6.30
2023-04-29T07:52:31.424Z,4.97
2023-04-29T07:54:58.350Z,5.47
2023-04-29T07:57:25.372Z,5.25
2023-04-29T07:59:59.418Z,5.05
2023-04-29T08:02:26.453Z,4.88
2023-04-29T08:04:56.246Z,5.88
2023-04-29T08:07:23.540Z,4.47
2023-04-29T08:09:50.524Z,5.10
2023-04-29T08:12:23.004Z,5.07
2023-04-29T08:14:50.070Z,4.43
2023-04-29T08:17:17.078Z,4.15
2023-04-29T08:19:44.710Z,5.22
2023-04-29T08:22:36.190Z,4.35
2023-04-29T08:25:07.068Z,4.95
2023-04-29T08:27:39.140Z,4.60
2023-04-29T08:30:09.566Z,4.80
2023-04-29T08:32:36.827Z,5.10
2023-04-29T08:35:04.203Z,4.28
2023-04-29T08:37:31.173Z,4.97
2023-04-29T08:39:58.161Z,4.72
2023-04-29T08:42:39.489Z,5.43
2023-04-29T08:45:09.697Z,5.35
2023-04-29T08:47:37.955Z,4.75
2023-04-29T08:50:06.379Z,4.65
2023-04-29T08:52:33.738Z,5.50
2023-04-29T08:55:05.481Z,4.68
2023-04-29T08:57:40.030Z,4.93
2023-04-29T09:00:11.169Z,3.80
2023-04-29T09:02:49.490Z,5.00
2023-04-29T09:05:16.849Z,4.10
2023-04-29T09:07:45.003Z,4.60
2023-04-29T09:10:18.700Z,3.63
2023-04-29T09:12:46.833Z,4.40
2023-04-29T09:15:13.905Z,4.65
2023-04-29T09:17:48.417Z,4.30
2023-04-29T09:20:35.787Z,4.63
2023-04-29T09:23:04.423Z,3.88
2023-04-29T09:25:31.622Z,3.47
2023-04-29T09:27:58.612Z,4.45
2023-04-29T09:30:26.945Z,3.72
2023-04-29T09:33:15.476Z,4.20
2023-04-29T09:35:42.578Z,4.43
2023-04-29T09:38:14.403Z,3.85
2023-04-29T09:40:58.395Z,4.03
2023-04-29T09:43:26.912Z,4.10
2023-04-29T09:45:54.196Z,4.30
2023-04-29T09:48:21.348Z,4.85
2023-04-29T09:51:04.256Z,3.78
2023-04-29T09:53:38.667Z,4.63
2023-04-29T09:56:06.396Z,4.00
2023-04-29T09:58:38.952Z,3.97
2023-04-29T10:01:06.756Z,4.05
2023-04-29T10:03:39.132Z,4.65
2023-04-29T10:06:07.691Z,4.25
2023-04-29T10:08:35.354Z,4.53
2023-04-29T10:11:06.042Z,3.35
2023-04-29T10:13:38.286Z,3.67
2023-04-29T10:16:28.209Z,3.35
2023-04-29T10:18:56.907Z,4.00
2023-04-29T10:21:29.315Z,3.90
2023-04-29T10:23:58.223Z,4.20
2023-04-29T10:26:29.702Z,4.38
2023-04-29T10:28:57.721Z,3.70
2023-04-29T10:31:28.086Z,4.85
2023-04-29T10:34:01.058Z,3.63
2023-04-29T10:36:30.504Z,3.60
2023-04-29T10:39:01.849Z,4.05
2023-04-29T10:41:37.312Z,4.03
2023-04-29T10:44:04.762Z,3.45
2023-04-29T10:46:31.801Z,3.40
2023-04-29T10:49:04.047Z,2.35
2023-04-29T10:51:39.469Z,2.17
2023-04-29T10:54:11.121Z,1.88
2023-04-29T10:56:54.208Z,1.80
2023-04-29T10:59:28.528Z,1.90
2023-04-29T11:01:55.651Z,1.67
2023-04-29T11:04:23.420Z,1.95
2023-04-29T11:07:02.960Z,1.77
2023-04-29T11:09:34.284Z,1.95
2023-04-29T11:12:04.082Z,1.85
2023-04-29T11:14:49.288Z,2.03
2023-04-29T11:17:18.469Z,1.85
2023-04-29T11:19:49.652Z,2.00
2023-04-29T11:22:21.164Z,1.90
2023-04-29T11:24:54.326Z,1.55
2023-04-29T11:27:25.651Z,1.75
2023-04-29T11:29:58.558Z,2.30
2023-04-29T11:32:31.064Z,1.67
2023-04-29T11:35:13.223Z,1.48
2023-04-29T11:37:41.538Z,1.30
2023-04-29T11:40:09.866Z,1.38
2023-04-29T11:42:45.739Z,1.90
2023-04-29T11:45:13.276Z,2.40
2023-04-29T11:47:48.152Z,2.15
2023-04-29T11:50:19.195Z,1.80
2023-04-29T11:52:50.128Z,1.60
2023-04-29T11:55:17.362Z,1.60
2023-04-29T11:57:44.564Z,2.17
2023-04-29T12:00:13.762Z,1.60
2023-04-29T12:02:45.219Z,1.83
2023-04-29T12:05:13.706Z,2.85
2023-04-29T12:07:41.193Z,1.90
2023-04-29T12:10:10.872Z,1.90
2023-04-29T12:12:44.099Z,1.52
2023-04-29T12:17:39.503Z,2.10
2023-04-29T12:20:10.012Z,1.60
2023-04-29T12:22:37.153Z,1.70
2023-04-29T12:25:04.971Z,1.20
2023-04-29T12:27:34.263Z,1.55
2023-04-29T12:30:01.390Z,1.38
2023-04-29T12:32:28.663Z,3.08
2023-04-29T12:34:56.280Z,1.42
2023-04-29T12:37:23.835Z,1.23
2023-04-29T12:39:51.555Z,1.27
2023-04-29T12:42:18.778Z,1.20
2023-04-29T12:44:49.557Z,0.95
2023-04-29T12:47:17.636Z,1.17
2023-04-29T12:49:49.236Z,1.08
2023-04-29T12:52:16.423Z,1.30
2023-04-29T12:54:44.246Z,1.00
2023-04-29T12:57:12.562Z,1.00
2023-04-29T12:59:41.254Z,1.20
2023-04-29T13:02:09.015Z,1.58
2023-04-29T13:04:36.150Z,0.80
2023-04-29T13:07:04.434Z,1.13
2023-04-29T13:09:31.602Z,1.17
2023-04-29T13:11:59.279Z,2.03
2023-04-29T13:14:27.028Z,1.67
2023-04-29T13:16:54.190Z,2.05
2023-04-29T13:19:30.584Z,1.80
2023-04-29T13:22:09.179Z,2.20
2023-04-29T13:24:36.787Z,2.83
2023-04-29T13:27:04.163Z,2.15
2023-04-29T13:29:31.561Z,1.92
